Time;durP1;ratioP1;P1;durP2;ratioP2;P2;SDS_P1;SDS_P2;PMS_P1;PMS_P2;Temp;Humidity;BMP_temperature;BMP_pressure;BME280_temperature;BME280_humidity;BME280_pressure;Samples;Min_cycle;Max_cycle;Signal;HPM_P1;HPM_P2
2022/10/16 00:01:16;;;;;;;11.75;3.33;;;;;;;13.59;97.32;100689.53;5075885;28;20478;-59
2022/10/16 00:03:44;;;;;;;11.45;3.38;;;;;;;13.60;97.04;100686.69;5075267;28;20102;-59
2022/10/16 00:06:12;;;;;;;15.10;3.78;;;;;;;13.53;97.45;100685.72;5075564;28;20040;-59
2022/10/16 00:08:39;;;;;;;9.25;3.47;;;;;;;13.48;98.03;100695.25;5066898;28;20041;-59
2022/10/16 00:11:09;;;;;;;10.93;3.88;;;;;;;13.46;97.86;100691.94;5055968;28;20041;-59
2022/10/16 00:13:37;;;;;;;8.60;3.38;;;;;;;13.42;97.91;100691.44;5055748;28;20478;-59
2022/10/16 00:16:04;;;;;;;7.70;3.13;;;;;;;13.39;98.16;100699.81;5054826;28;20045;-59
2022/10/16 00:18:31;;;;;;;12.20;3.30;;;;;;;13.41;98.85;100700.47;5055851;28;20045;-59
2022/10/16 00:21:03;;;;;;;10.20;3.30;;;;;;;13.38;98.47;100714.13;5071094;28;20099;-59
2022/10/16 00:23:33;;;;;;;15.57;3.65;;;;;;;13.39;98.65;100713.13;5075459;28;20052;-59
2022/10/16 00:26:04;;;;;;;13.00;3.30;;;;;;;13.46;98.42;100706.06;5074385;28;20124;-59
2022/10/16 00:28:31;;;;;;;10.43;3.35;;;;;;;13.42;98.56;100702.94;5075531;28;20044;-59
2022/10/16 00:30:58;;;;;;;13.15;3.10;;;;;;;13.40;98.11;100702.25;5075168;28;20049;-59
2022/10/16 00:33:25;;;;;;;10.18;3.25;;;;;;;13.35;99.00;100695.81;5075865;28;20059;-59
2022/10/16 00:35:52;;;;;;;9.45;3.00;;;;;;;13.38;98.54;100692.81;5075220;28;20524;-59
2022/10/16 00:38:18;;;;;;;11.23;3.17;;;;;;;13.35;99.37;100688.66;5068284;28;20056;-59
2022/10/16 00:40:45;;;;;;;12.27;2.97;;;;;;;13.36;98.87;100687.63;5055271;28;20041;-59
2022/10/16 00:43:14;;;;;;;15.38;4.35;;;;;;;13.30;99.15;100695.44;5055387;28;20525;-59
2022/10/16 00:45:41;;;;;;;9.85;3.17;;;;;;;13.35;99.28;100690.47;5054254;28;20135;-58
2022/10/16 00:48:12;;;;;;;9.80;2.90;;;;;;;13.38;99.48;100688.28;5055295;28;20045;-59
2022/10/16 00:50:41;;;;;;;9.80;2.85;;;;;;;13.36;98.91;100684.97;5068164;28;20509;-59
2022/10/16 00:53:08;;;;;;;15.25;3.40;;;;;;;13.39;99.04;100675.81;5035704;28;20048;-59
2022/10/16 00:55:36;;;;;;;7.40;2.60;;;;;;;13.37;99.09;100675.13;5075248;28;20041;-58
2022/10/16 00:58:03;;;;;;;10.38;2.97;;;;;;;13.40;99.37;100680.13;5075071;28;20055;-59
2022/10/16 01:00:30;;;;;;;9.05;2.90;;;;;;;13.37;99.69;100678.66;5074544;28;20098;-58
2022/10/16 01:03:00;;;;;;;10.50;3.10;;;;;;;13.32;99.64;100685.50;5074717;28;20086;-59
2022/10/16 01:05:34;;;;;;;11.90;3.35;;;;;;;13.32;100.00;100678.34;5074420;28;20131;-59
2022/10/16 01:08:13;;;;;;;11.63;3.03;;;;;;;13.34;99.79;100684.31;5071437;28;20449;-58
2022/10/16 01:10:55;;;;;;;10.70;3.17;;;;;;;13.27;100.00;100693.16;5054710;28;20145;-58
2022/10/16 01:13:28;;;;;;;9.80;3.17;;;;;;;13.24;100.00;100704.97;5053889;28;20056;-58
2022/10/16 01:16:06;;;;;;;10.45;3.00;;;;;;;13.23;100.00;100706.00;5053626;28;20055;-59
2022/10/16 01:18:45;;;;;;;8.57;2.85;;;;;;;13.20;100.00;100707.16;5055107;28;20053;-59
2022/10/16 01:21:34;;;;;;;9.48;3.33;;;;;;;13.13;100.00;100698.19;5071591;28;20040;-58
2022/10/16 01:24:15;;;;;;;11.38;3.15;;;;;;;13.16;100.00;100705.84;5074840;28;20045;-58
2022/10/16 01:30:04;;;;;;;9.05;3.38;;;;;;;13.21;100.00;100697.34;5102961;27;20388;-59
2022/10/16 01:32:45;;;;;;;17.60;4.03;;;;;;;13.21;100.00;100703.50;5072022;28;20508;-59
2022/10/16 01:35:33;;;;;;;10.95;4.32;;;;;;;13.19;100.00;100702.00;5070677;28;20072;-59
2022/10/16 01:38:10;;;;;;;11.45;4.38;;;;;;;13.19;100.00;100697.50;5066752;28;20693;-59
2022/10/16 01:40:41;;;;;;;15.48;4.65;;;;;;;13.19;100.00;100699.34;5050175;28;20045;-59
2022/10/16 01:43:15;;;;;;;13.73;4.38;;;;;;;13.19;100.00;100689.53;5050248;28;20054;-59
2022/10/16 01:45:44;;;;;;;15.02;4.43;;;;;;;13.14;100.00;100696.38;5050204;28;20053;-59
2022/10/16 01:48:16;;;;;;;16.42;4.50;;;;;;;13.15;100.00;100698.00;5050435;28;20041;-59
2022/10/16 01:50:49;;;;;;;12.07;4.20;;;;;;;13.16;100.00;100699.69;5067488;28;20131;-59
2022/10/16 01:53:17;;;;;;;11.82;4.47;;;;;;;13.09;100.00;100706.69;5067951;28;20127;-59
2022/10/16 01:55:47;;;;;;;10.88;3.90;;;;;;;13.17;100.00;100715.50;5089023;28;20101;-59
2022/10/16 01:58:15;;;;;;;13.60;3.83;;;;;;;13.24;100.00;100711.16;5090242;28;20047;-59
2022/10/16 02:00:45;;;;;;;9.70;3.45;;;;;;;13.26;100.00;100718.94;5089880;28;20083;-59
2022/10/16 02:03:16;;;;;;;19.80;4.03;;;;;;;13.24;100.00;100713.81;5089983;28;20102;-59
2022/10/16 02:05:50;;;;;;;11.52;3.88;;;;;;;13.21;100.00;100711.47;5088354;28;20051;-59
2022/10/16 02:08:17;;;;;;;11.00;3.63;;;;;;;13.27;100.00;100699.31;5083896;28;20138;-59
2022/10/16 02:10:44;;;;;;;10.68;4.72;;;;;;;13.31;100.00;100705.16;5069605;28;20476;-59
2022/10/16 02:13:35;;;;;;;7.80;3.40;;;;;;;13.23;100.00;100706.81;5069752;28;20128;-59
2022/10/16 02:16:02;;;;;;;9.45;3.40;;;;;;;13.32;100.00;100720.16;5069745;28;20047;-59
2022/10/16 02:18:30;;;;;;;14.35;4.10;;;;;;;13.37;100.00;100723.09;5069337;28;20028;-59
2022/10/16 02:21:02;;;;;;;13.93;3.90;;;;;;;13.34;100.00;100718.97;5085049;28;20131;-59
2022/10/16 02:23:40;;;;;;;8.98;3.90;;;;;;;13.38;100.00;100724.78;5089331;28;20123;-59
2022/10/16 02:26:13;;;;;;;11.70;3.95;;;;;;;13.36;100.00;100724.13;5089606;28;20047;-59
2022/10/16 02:28:44;;;;;;;14.45;4.53;;;;;;;13.27;100.00;100720.63;5089232;28;20490;-59
2022/10/16 02:31:14;;;;;;;;;;;;;;;13.31;100.00;100727.28;5088646;28;20048;-59
2022/10/16 02:33:43;;;;;;;8.05;3.38;;;;;;;13.23;99.83;100724.63;5089765;28;19920;-59
2022/10/16 02:36:10;;;;;;;9.38;3.20;;;;;;;13.22;98.98;100728.28;5089430;28;20055;-59
2022/10/16 02:38:39;;;;;;;8.68;3.05;;;;;;;13.25;98.40;100727.94;5081022;28;20044;-59
2022/10/16 02:41:06;;;;;;;8.95;3.10;;;;;;;13.29;98.79;100729.25;5055275;28;20049;-59
2022/10/16 02:43:33;;;;;;;10.68;3.20;;;;;;;13.29;98.06;100726.59;5056113;28;20494;-59
2022/10/16 02:46:00;;;;;;;7.10;2.88;;;;;;;13.35;98.01;100725.09;5055439;28;20052;-58
2022/10/16 02:48:27;;;;;;;8.30;3.10;;;;;;;13.36;98.33;100714.28;5055582;28;20040;-59
2022/10/16 02:50:53;;;;;;;8.73;3.03;;;;;;;13.37;98.79;100715.97;5070489;28;20071;-59
2022/10/16 02:53:20;;;;;;;8.40;2.63;;;;;;;13.39;96.54;100713.13;5037574;28;20040;-59
2022/10/16 02:55:46;;;;;;;7.22;3.00;;;;;;;13.43;96.13;100720.59;5075797;28;20044;-59
2022/10/16 02:58:13;;;;;;;8.18;3.03;;;;;;;13.53;95.56;100735.53;5075377;28;20379;-59
2022/10/16 03:00:40;;;;;;;7.10;2.80;;;;;;;13.49;95.63;100731.56;5075352;28;20045;-59
2022/10/16 03:03:06;;;;;;;10.23;2.85;;;;;;;13.48;95.59;100725.41;5075404;28;20066;-59
2022/10/16 03:05:33;;;;;;;7.03;2.60;;;;;;;13.37;95.28;100728.44;5074496;28;20053;-59
2022/10/16 03:08:00;;;;;;;9.75;2.90;;;;;;;13.35;96.06;100735.75;5072108;28;20479;-59
2022/10/16 03:10:27;;;;;;;9.85;2.90;;;;;;;13.27;95.89;100723.28;5054118;28;20084;-59
2022/10/16 03:12:53;;;;;;;6.25;2.70;;;;;;;13.21;96.14;100723.97;5055414;28;20052;-59
2022/10/16 03:15:20;;;;;;;7.03;2.80;;;;;;;13.18;97.02;100717.16;5054784;28;20110;-59
2022/10/16 03:17:47;;;;;;;7.72;2.95;;;;;;;13.19;97.68;100718.81;5055370;28;20098;-59
2022/10/16 03:20:13;;;;;;;10.55;3.00;;;;;;;13.29;96.43;100715.94;5064540;28;20493;-59
2022/10/16 03:22:40;;;;;;;10.27;3.00;;;;;;;13.24;96.51;100715.63;5074984;28;20044;-59
2022/10/16 03:25:07;;;;;;;6.00;2.58;;;;;;;13.28;97.05;100716.09;5074989;28;20044;-59
2022/10/16 03:27:34;;;;;;;7.80;3.10;;;;;;;13.27;95.98;100717.13;5074384;28;20076;-59
2022/10/16 03:30:01;;;;;;;10.30;2.90;;;;;;;13.30;96.57;100722.94;5074988;28;20136;-59
2022/10/16 03:32:29;;;;;;;8.30;2.90;;;;;;;13.30;96.99;100730.09;5067811;28;20033;-60
2022/10/16 03:34:56;;;;;;;7.55;3.05;;;;;;;13.30;96.93;100724.75;5037275;28;20534;-59
2022/10/16 03:37:23;;;;;;;9.75;2.80;;;;;;;13.24;96.98;100727.13;5034619;28;20050;-59
2022/10/16 03:39:51;;;;;;;9.77;3.03;;;;;;;13.21;95.97;100726.66;5034930;28;20594;-59
2022/10/16 03:42:17;;;;;;;8.35;2.67;;;;;;;13.25;95.45;100742.09;5034383;28;20103;-59
2022/10/16 03:44:44;;;;;;;7.05;2.90;;;;;;;13.24;95.01;100734.28;5034207;28;20464;-59
2022/10/16 03:47:11;;;;;;;7.15;2.60;;;;;;;13.23;96.15;100729.97;5034503;28;20045;-59
2022/10/16 03:49:38;;;;;;;9.93;2.80;;;;;;;13.19;95.76;100726.81;5043403;28;20132;-59
2022/10/16 03:52:04;;;;;;;8.55;2.70;;;;;;;13.21;96.14;100729.31;5035834;28;20555;-59
2022/10/16 03:54:31;;;;;;;6.50;2.60;;;;;;;13.17;95.87;100741.28;5074195;28;20051;-59
2022/10/16 03:56:58;;;;;;;7.32;2.50;;;;;;;13.15;95.95;100746.81;5073313;28;20082;-59
2022/10/16 03:59:26;;;;;;;6.03;2.88;;;;;;;13.16;95.52;100745.78;5074118;28;20106;-59
2022/10/16 04:01:52;;;;;;;7.30;2.83;;;;;;;13.15;96.00;100740.63;5073672;28;20040;-59
2022/10/16 04:04:19;;;;;;;5.63;2.50;;;;;;;13.13;96.41;100747.97;5073806;28;20074;-59
2022/10/16 04:06:46;;;;;;;7.93;2.70;;;;;;;13.06;96.08;100755.78;5074056;28;20050;-59
2022/10/16 04:09:12;;;;;;;7.13;2.60;;;;;;;13.04;96.66;100755.97;5060765;28;20056;-59
2022/10/16 04:11:39;;;;;;;8.00;2.58;;;;;;;13.02;95.71;100752.66;5053816;28;20033;-59
2022/10/16 04:14:05;;;;;;;8.13;2.78;;;;;;;13.05;95.78;100759.47;5053945;28;20084;-59
2022/10/16 04:16:32;;;;;;;9.45;3.00;;;;;;;13.04;96.11;100773.78;5054360;28;20398;-59
2022/10/16 04:18:59;;;;;;;7.88;2.90;;;;;;;12.97;95.38;100764.78;5053652;28;20502;-59
2022/10/16 04:21:25;;;;;;;6.65;2.80;;;;;;;13.02;96.35;100773.13;5073003;28;20048;-59
2022/10/16 04:23:52;;;;;;;9.85;2.95;;;;;;;13.00;96.52;100775.94;5073782;28;20045;-59
2022/10/16 04:26:19;;;;;;;8.23;2.83;;;;;;;13.04;96.22;100787.94;5073821;28;20051;-59
2022/10/16 04:28:46;;;;;;;5.97;2.53;;;;;;;13.02;96.83;100786.44;5073205;28;20127;-59
2022/10/16 04:31:13;;;;;;;9.25;2.65;;;;;;;12.93;96.82;100796.25;5073290;28;20048;-59
2022/10/16 04:33:42;;;;;;;8.80;2.53;;;;;;;12.85;96.20;100794.44;5073817;28;20093;-59
2022/10/16 04:36:09;;;;;;;7.95;2.60;;;;;;;12.87;96.85;100794.28;5073332;28;20120;-59
2022/10/16 04:38:37;;;;;;;6.13;2.40;;;;;;;12.89;96.82;100794.13;5064382;28;20072;-59
2022/10/16 04:41:04;;;;;;;8.02;2.30;;;;;;;12.81;97.04;100781.66;5053385;28;20061;-59
2022/10/16 04:43:30;;;;;;;8.20;2.40;;;;;;;12.84;97.48;100767.97;5053614;28;20060;-59
2022/10/16 04:45:57;;;;;;;9.15;2.47;;;;;;;12.81;97.77;100776.31;5052010;28;20071;-59
2022/10/16 04:48:24;;;;;;;7.20;2.35;;;;;;;12.77;97.12;100782.97;5053397;28;20055;-59
2022/10/16 04:50:51;;;;;;;5.43;2.22;;;;;;;12.79;97.83;100789.78;5053141;28;20152;-59
2022/10/16 04:53:18;;;;;;;9.65;2.60;;;;;;;12.76;97.03;100799.94;5051169;28;20048;-59
2022/10/16 04:55:45;;;;;;;5.22;2.30;;;;;;;12.76;97.32;100806.09;5073216;28;20524;-59
2022/10/16 04:58:12;;;;;;;7.60;2.33;;;;;;;12.81;97.34;100816.25;5073277;28;20402;-59
2022/10/16 05:00:39;;;;;;;5.88;2.40;;;;;;;12.79;97.15;100811.09;5073233;28;20044;-59
2022/10/16 05:03:08;;;;;;;5.95;2.50;;;;;;;12.75;96.81;100812.44;5072662;28;20078;-59
2022/10/16 05:05:36;;;;;;;6.25;2.40;;;;;;;12.69;96.72;100815.75;5072311;28;20447;-59
2022/10/16 05:08:03;;;;;;;9.93;2.30;;;;;;;12.73;96.70;100810.91;5069583;28;20045;-59
2022/10/16 05:10:29;;;;;;;7.32;2.13;;;;;;;12.77;97.34;100813.09;5051884;28;20048;-59
2022/10/16 05:12:56;;;;;;;5.60;2.47;;;;;;;12.79;97.33;100815.59;5053142;28;20056;-59
2022/10/16 05:15:24;;;;;;;7.00;2.08;;;;;;;12.74;97.64;100812.59;5052989;28;20048;-59
2022/10/16 05:17:53;;;;;;;9.00;2.10;;;;;;;12.70;97.42;100825.41;5051791;28;20189;-59
2022/10/16 05:20:20;;;;;;;5.35;2.20;;;;;;;12.75;97.03;100838.19;5063290;28;20056;-59
2022/10/16 05:22:47;;;;;;;6.28;2.08;;;;;;;12.75;96.99;100843.50;5072875;28;20041;-60
2022/10/16 05:25:14;;;;;;;5.30;2.42;;;;;;;12.71;97.32;100840.34;5073325;28;20052;-59
2022/10/16 05:27:40;;;;;;;6.07;2.15;;;;;;;12.74;97.47;100836.53;5072551;28;20052;-59
2022/10/16 05:30:08;;;;;;;4.97;2.10;;;;;;;12.71;97.63;100832.38;5073039;28;20689;-59
2022/10/16 05:32:35;;;;;;;5.82;2.30;;;;;;;12.74;97.38;100833.88;5071028;28;20047;-59
2022/10/16 05:35:02;;;;;;;6.53;2.30;;;;;;;12.75;97.32;100830.22;5041571;28;20042;-59
2022/10/16 05:37:29;;;;;;;6.10;2.25;;;;;;;12.62;98.32;100842.16;5032835;28;20060;-59
2022/10/16 05:39:56;;;;;;;5.55;2.10;;;;;;;12.66;98.37;100845.34;5032263;28;20510;-59
2022/10/16 05:42:23;;;;;;;8.60;3.35;;;;;;;12.69;98.08;100845.00;5032649;28;20037;-59
2022/10/16 05:44:49;;;;;;;4.70;2.15;;;;;;;12.66;98.42;100851.50;5032201;28;20372;-60
2022/10/16 05:47:16;;;;;;;6.32;2.25;;;;;;;12.66;98.57;100862.16;5031939;28;20093;-59
2022/10/16 05:49:42;;;;;;;6.53;2.60;;;;;;;12.67;98.61;100860.31;5041750;28;20051;-59
2022/10/16 05:52:09;;;;;;;7.47;2.45;;;;;;;12.65;98.88;100859.66;5034796;28;20055;-60
2022/10/16 05:54:36;;;;;;;7.82;2.63;;;;;;;12.68;98.55;100867.31;5072628;28;20052;-59
2022/10/16 05:57:02;;;;;;;9.80;2.63;;;;;;;12.69;98.40;100866.31;5071703;28;20106;-59
2022/10/16 05:59:29;;;;;;;7.05;2.50;;;;;;;12.71;98.67;100866.16;5072704;28;20501;-59
2022/10/16 06:01:56;;;;;;;7.43;2.55;;;;;;;12.68;99.23;100884.13;5072292;28;20059;-59
2022/10/16 06:04:23;;;;;;;6.85;2.63;;;;;;;12.65;99.24;100889.75;5072234;28;20524;-60
2022/10/16 06:06:50;;;;;;;8.57;2.88;;;;;;;12.70;98.87;100883.94;5072439;28;20052;-59
2022/10/16 06:09:16;;;;;;;7.72;2.63;;;;;;;12.69;99.00;100882.28;5058537;28;20041;-59
2022/10/16 06:11:43;;;;;;;5.80;2.58;;;;;;;12.71;98.84;100895.44;5052323;28;20044;-59
2022/10/16 06:14:10;;;;;;;7.47;2.70;;;;;;;12.74;99.25;100887.13;5052407;28;20437;-59
2022/10/16 06:16:37;;;;;;;11.13;3.15;;;;;;;12.71;98.80;100895.44;5056076;28;20049;-59
2022/10/16 06:19:07;;;;;;;8.90;3.28;;;;;;;12.69;98.98;100884.94;5056024;28;20138;-60
2022/10/16 06:21:34;;;;;;;7.28;2.88;;;;;;;12.68;98.90;100888.63;5036257;28;20055;-59
2022/10/16 06:24:01;;;;;;;10.25;3.33;;;;;;;12.73;99.65;100896.09;5036187;28;20086;-59
2022/10/16 06:26:30;;;;;;;11.45;3.28;;;;;;;12.76;99.39;100901.09;5036055;28;20522;-59
2022/10/16 06:28:59;;;;;;;7.63;3.08;;;;;;;12.77;99.65;100900.94;5035642;28;20113;-59
2022/10/16 06:31:30;;;;;;;14.18;2.85;;;;;;;12.84;98.71;100893.09;5035985;28;20037;-59
2022/10/16 06:33:57;;;;;;;8.95;2.90;;;;;;;12.91;98.48;100898.59;5035776;28;20045;-59
2022/10/16 06:36:25;;;;;;;8.63;2.90;;;;;;;12.87;99.03;100898.09;5036059;28;20140;-59
2022/10/16 06:38:52;;;;;;;7.90;2.70;;;;;;;12.94;99.33;100900.94;5046408;28;20087;-59
2022/10/16 06:41:21;;;;;;;8.20;3.70;;;;;;;12.93;99.67;100910.75;5055823;28;20532;-59
2022/10/16 06:43:48;;;;;;;9.80;3.80;;;;;;;13.01;99.18;100923.25;5055858;28;20041;-59
2022/10/16 06:46:19;;;;;;;13.98;3.25;;;;;;;13.04;97.52;100923.75;5055464;28;20048;-59
2022/10/16 06:48:46;;;;;;;6.95;3.20;;;;;;;13.12;97.61;100930.09;5056094;28;20053;-59
2022/10/16 06:51:16;;;;;;;8.48;2.75;;;;;;;13.14;97.85;100934.22;5047085;28;20044;-59
2022/10/16 06:53:45;;;;;;;9.70;2.80;;;;;;;13.20;97.11;100941.56;5066419;28;20051;-59
2022/10/16 06:56:29;;;;;;;6.05;2.50;;;;;;;13.27;96.46;100943.56;5075696;28;20044;-59
2022/10/16 06:58:56;;;;;;;13.38;2.60;;;;;;;13.37;95.32;100946.91;5075591;28;20083;-59
2022/10/16 07:01:24;;;;;;;6.63;2.40;;;;;;;13.40;96.00;100957.25;5075083;28;20109;-59
2022/10/16 07:03:51;;;;;;;10.63;3.67;;;;;;;13.46;95.52;100955.72;5073643;28;20135;-59
2022/10/16 07:06:21;;;;;;;6.20;2.53;;;;;;;13.49;95.17;100963.41;5075163;28;20052;-59
2022/10/16 07:08:48;;;;;;;6.82;2.70;;;;;;;13.46;95.27;100969.06;5048035;28;20115;-59
2022/10/16 07:11:18;;;;;;;6.45;2.75;;;;;;;13.40;95.06;100959.91;5055021;28;20049;-59
2022/10/16 07:13:46;;;;;;;11.80;2.58;;;;;;;13.44;95.59;100971.88;5054941;28;20132;-59
2022/10/16 07:16:17;;;;;;;8.70;2.80;;;;;;;13.46;95.74;100972.53;5055091;28;20510;-59
2022/10/16 07:18:45;;;;;;;10.38;3.35;;;;;;;13.43;96.38;100968.41;5054169;28;20534;-59
2022/10/16 07:21:15;;;;;;;11.15;3.88;;;;;;;13.38;95.77;100977.91;5072368;28;20049;-59
2022/10/16 07:23:42;;;;;;;8.85;2.60;;;;;;;13.40;95.41;100990.03;5074896;28;20040;-59
2022/10/16 07:26:10;;;;;;;7.07;2.50;;;;;;;13.43;95.53;100992.38;5074938;28;20109;-60
2022/10/16 07:28:37;;;;;;;7.43;2.67;;;;;;;13.47;95.48;100998.22;5074727;28;20044;-59
2022/10/16 07:31:06;;;;;;;6.50;2.60;;;;;;;13.48;95.30;100997.22;5074706;28;20094;-59
2022/10/16 07:33:35;;;;;;;6.95;2.85;;;;;;;13.56;95.36;101005.19;5074761;28;20119;-59
2022/10/16 07:36:01;;;;;;;7.47;2.60;;;;;;;13.55;95.97;101000.03;5069040;28;20041;-59
2022/10/16 07:38:28;;;;;;;7.40;2.85;;;;;;;13.59;96.32;101004.88;5067213;28;20048;-59
2022/10/16 07:40:58;;;;;;;6.40;2.72;;;;;;;13.52;95.58;101008.38;5054065;28;20075;-59
2022/10/16 07:43:26;;;;;;;6.68;2.65;;;;;;;13.54;95.28;101014.38;5054016;28;20041;-59
2022/10/16 07:45:52;;;;;;;8.65;2.90;;;;;;;13.59;95.12;101020.88;5054523;28;20091;-59
2022/10/16 07:48:19;;;;;;;12.32;3.05;;;;;;;13.78;94.35;101024.19;5054273;28;20069;-59
2022/10/16 07:50:46;;;;;;;7.40;2.85;;;;;;;13.94;93.53;101032.16;5062243;28;20033;-59
2022/10/16 07:53:14;;;;;;;8.13;2.70;;;;;;;14.14;92.78;101029.13;5043157;28;20040;-59
2022/10/16 07:55:40;;;;;;;8.02;3.00;;;;;;;14.28;91.69;101033.78;5074226;28;20201;-59
2022/10/16 07:58:07;;;;;;;10.23;3.20;;;;;;;14.39;89.98;101033.41;5074537;28;20090;-59
2022/10/16 08:00:37;;;;;;;8.05;2.83;;;;;;;14.48;91.03;101028.88;5072600;28;20483;-59
2022/10/16 08:03:03;;;;;;;7.65;2.75;;;;;;;14.59;89.09;101047.22;5074048;28;20442;-59
2022/10/16 08:05:33;;;;;;;9.07;2.90;;;;;;;14.69;89.26;101047.00;5073280;28;20068;-59
2022/10/16 08:08:01;;;;;;;13.45;3.05;;;;;;;14.83;88.16;101052.63;5069773;28;20040;-59
2022/10/16 08:10:29;;;;;;;10.02;2.70;;;;;;;14.93;87.30;101054.03;5052670;28;20090;-59
2022/10/16 08:12:55;;;;;;;10.18;2.63;;;;;;;14.94;87.15;101057.56;5053998;28;20059;-59
2022/10/16 08:15:22;;;;;;;8.05;2.90;;;;;;;14.95;86.34;101056.53;5053599;28;20041;-59
2022/10/16 08:17:58;;;;;;;8.15;2.75;;;;;;;14.95;86.65;101053.88;5054037;28;20071;-59
2022/10/16 08:20:27;;;;;;;11.65;3.08;;;;;;;15.05;85.89;101061.69;5065036;28;20429;-59
2022/10/16 08:22:54;;;;;;;9.65;2.83;;;;;;;15.10;86.74;101068.16;5073308;28;20397;-59
2022/10/16 08:25:22;;;;;;;6.65;2.80;;;;;;;15.21;85.65;101072.28;5073410;28;20040;-59
2022/10/16 08:27:50;;;;;;;9.55;2.83;;;;;;;15.13;85.04;101078.50;5073809;28;20513;-59
2022/10/16 08:30:18;;;;;;;7.90;2.70;;;;;;;15.09;85.58;101079.84;5073074;28;20045;-59
2022/10/16 08:32:45;;;;;;;11.73;3.20;;;;;;;15.09;85.79;101077.16;5073417;28;20103;-59
2022/10/16 08:35:13;;;;;;;12.65;3.08;;;;;;;15.13;85.85;101077.66;5073376;28;20049;-59
2022/10/16 08:37:41;;;;;;;13.02;3.90;;;;;;;15.24;85.27;101087.13;5072431;28;20053;-59
2022/10/16 08:40:18;;;;;;;10.20;2.97;;;;;;;15.29;85.36;101093.59;5053301;28;20395;-59
2022/10/16 08:43:13;;;;;;;8.57;2.50;;;;;;;15.46;84.29;101096.16;5053497;28;20049;-59
2022/10/16 08:46:19;;;;;;;6.68;2.40;;;;;;;15.38;84.05;101090.88;5052852;28;20132;-59
2022/10/16 08:48:50;;;;;;;6.65;2.25;;;;;;;15.47;83.51;101092.50;5053383;28;20120;-59
2022/10/16 08:51:32;;;;;;;8.52;2.65;;;;;;;15.53;82.61;101100.66;5032376;28;20870;-58
2022/10/16 08:54:03;;;;;;;8.40;2.20;;;;;;;15.63;82.27;101105.75;5073340;28;20079;-58
2022/10/16 08:56:30;;;;;;;8.05;2.40;;;;;;;15.64;82.44;101112.75;5072908;28;20041;-59
2022/10/16 08:58:58;;;;;;;9.65;2.33;;;;;;;15.72;81.88;101110.03;5072913;28;20044;-59
2022/10/16 09:01:39;;;;;;;7.78;2.55;;;;;;;15.74;81.58;101110.69;5052621;28;20056;-59
2022/10/16 09:06:50;;;;;;;6.30;2.10;;;;;;;15.81;81.31;101124.19;5122262;27;20609;-59
2022/10/16 09:12:24;;;;;;;6.13;2.03;;;;;;;15.80;80.38;101125.19;5103280;27;20162;-59
2022/10/16 09:15:18;;;;;;;7.03;2.13;;;;;;;15.91;79.05;101131.97;5070239;28;20041;-59
2022/10/16 09:18:11;;;;;;;9.23;1.80;;;;;;;15.98;79.00;101127.56;5070339;28;20056;-59
2022/10/16 09:20:49;;;;;;;7.93;1.80;;;;;;;16.05;76.73;101131.19;5082795;28;20040;-58
2022/10/16 09:23:22;;;;;;;6.72;1.63;;;;;;;16.10;77.25;101134.16;5088928;28;20078;-60
2022/10/16 09:25:50;;;;;;;8.40;1.70;;;;;;;16.06;77.31;101140.03;5089778;28;20440;-60
2022/10/16 09:28:18;;;;;;;12.20;2.38;;;;;;;16.17;77.45;101136.09;5089936;28;20391;-59
2022/10/16 09:30:48;;;;;;;8.20;1.70;;;;;;;16.21;77.21;101148.09;5090131;28;20135;-60
2022/10/16 09:33:17;;;;;;;7.50;2.55;;;;;;;16.21;77.75;101148.09;5089718;28;20040;-60
2022/10/16 09:35:48;;;;;;;5.38;1.65;;;;;;;16.25;76.41;101155.59;5076129;28;20438;-60
2022/10/16 09:38:33;;;;;;;14.03;4.77;;;;;;;16.39;75.55;101148.63;5064257;28;20167;-59
2022/10/16 09:41:12;;;;;;;8.38;1.80;;;;;;;16.39;75.09;101153.97;5050030;28;20371;-60
2022/10/16 09:43:51;;;;;;;10.90;1.98;;;;;;;16.37;75.42;101147.13;5048981;28;20041;-60
2022/10/16 09:46:29;;;;;;;6.78;1.73;;;;;;;16.40;76.49;101144.91;5031274;28;20053;-60
2022/10/16 09:48:59;;;;;;;12.63;1.90;;;;;;;16.45;76.53;101139.84;5095577;28;20079;-60
2022/10/16 09:51:29;;;;;;;11.65;1.90;;;;;;;16.49;74.65;101148.34;5048917;28;20044;-60
2022/10/16 09:54:00;;;;;;;7.05;1.70;;;;;;;16.63;73.44;101144.03;5089524;28;20044;-60
2022/10/16 09:56:32;;;;;;;9.57;1.57;;;;;;;16.70;74.31;101150.31;5089801;28;20135;-60
2022/10/16 09:59:02;;;;;;;8.70;1.90;;;;;;;16.72;72.08;101158.13;5089770;28;20079;-60
2022/10/16 10:01:36;;;;;;;7.55;1.48;;;;;;;16.67;72.85;101151.50;5088905;28;20028;-60
2022/10/16 10:04:04;;;;;;;8.75;1.65;;;;;;;16.76;72.88;101154.91;5089122;28;20070;-60
2022/10/16 10:06:37;;;;;;;8.43;1.70;;;;;;;16.79;72.85;101151.88;5088946;28;20048;-60
2022/10/16 10:12:01;;;;;;;4.65;1.73;;;;;;;16.98;71.85;101145.13;5102849;27;20138;-59
2022/10/16 10:14:39;;;;;;;6.68;1.52;;;;;;;17.26;72.54;101147.97;5070231;28;20048;-59
2022/10/16 10:17:10;;;;;;;5.25;1.58;;;;;;;17.76;68.98;101149.94;5069993;28;20051;-59
2022/10/16 10:19:41;;;;;;;10.40;1.90;;;;;;;17.99;67.83;101153.28;5074675;28;20482;-60
2022/10/16 10:22:19;;;;;;;10.38;1.80;;;;;;;19.38;63.38;101163.25;5090276;28;20044;-60
2022/10/16 10:25:14;;;;;;;10.88;1.92;;;;;;;19.02;62.53;101171.56;5090655;28;20056;-60
2022/10/16 10:28:21;;;;;;;11.35;1.70;;;;;;;18.22;64.12;101163.78;5090074;28;20044;-60
2022/10/16 10:33:37;;;;;;;6.15;1.70;;;;;;;18.66;62.91;101150.25;5102797;27;20650;-60
2022/10/16 10:36:16;;;;;;;6.97;1.90;;;;;;;19.15;62.15;101158.19;5070155;28;20494;-59
2022/10/16 10:39:03;;;;;;;7.93;1.70;;;;;;;21.04;56.67;101163.47;5070451;28;20045;-60
2022/10/16 10:44:41;;;;;;;6.30;1.45;;;;;;;20.44;55.97;101168.97;5125179;27;20209;-59
2022/10/16 10:50:10;;;;;;;8.70;1.90;;;;;;;22.93;48.30;101163.53;5142931;27;20191;-59
2022/10/16 10:53:09;;;;;;;8.88;1.80;;;;;;;24.65;44.39;101168.53;5072398;28;20048;-60
2022/10/16 10:56:03;;;;;;;6.22;1.52;;;;;;;24.78;42.89;101173.72;5110440;28;20081;-60
2022/10/16 10:58:56;;;;;;;5.95;1.50;;;;;;;23.12;45.68;101180.63;5110540;28;20050;-59
2022/10/16 11:01:51;;;;;;;9.68;1.77;;;;;;;23.75;45.02;101182.06;5110175;27;20043;-60
2022/10/16 11:04:46;;;;;;;7.38;2.10;;;;;;;25.46;41.68;101182.97;5109553;28;20055;-60
2022/10/16 11:07:25;;;;;;;9.25;1.73;;;;;;;26.86;38.64;101184.19;5110615;28;20040;-61
2022/10/16 11:09:58;;;;;;;6.13;1.75;;;;;;;27.62;36.72;101185.34;5110554;28;20435;-60
2022/10/16 11:12:29;;;;;;;6.50;1.65;;;;;;;28.43;35.08;101187.91;5110695;27;20067;-60
2022/10/16 11:15:11;;;;;;;6.43;1.55;;;;;;;27.99;34.59;101199.06;5110555;28;20557;-60
2022/10/16 11:17:44;;;;;;;9.27;1.70;;;;;;;27.14;35.69;101187.78;5110626;27;20134;-61
2022/10/16 11:20:19;;;;;;;8.60;1.45;;;;;;;27.94;34.60;101190.84;5119410;28;20070;-60
2022/10/16 11:22:52;;;;;;;5.05;1.50;;;;;;;27.75;34.49;101195.81;5130788;27;20044;-61
2022/10/16 11:25:27;;;;;;;5.63;1.63;;;;;;;27.85;33.90;101193.19;5130530;27;20048;-60
2022/10/16 11:28:16;;;;;;;8.23;1.58;;;;;;;27.34;35.32;101195.38;5130901;27;20097;-61
2022/10/16 11:30:50;;;;;;;8.98;1.88;;;;;;;27.41;35.34;101190.56;5130206;27;20715;-60
2022/10/16 11:33:40;;;;;;;7.00;1.52;;;;;;;25.84;37.81;101195.06;5130790;27;20050;-60
2022/10/16 11:36:16;;;;;;;7.25;1.65;;;;;;;26.31;37.30;101185.81;5124154;27;20752;-60
2022/10/16 11:38:58;;;;;;;9.57;1.60;;;;;;;26.97;36.30;101180.50;5100459;28;20049;-60
2022/10/16 11:42:04;;;;;;;8.35;1.60;;;;;;;25.34;38.60;101181.38;5089195;28;20397;-60
2022/10/16 11:45:02;;;;;;;6.28;1.50;;;;;;;24.05;41.35;101200.19;5089346;28;20512;-60
2022/10/16 11:47:43;;;;;;;7.35;1.60;;;;;;;24.18;40.79;101199.16;5088940;27;20052;-59
2022/10/16 11:50:34;;;;;;;7.97;1.60;;;;;;;24.77;40.04;101203.78;5111292;28;20042;-61
2022/10/16 11:53:35;;;;;;;5.18;1.50;;;;;;;24.08;41.72;101197.00;5090265;27;20444;-61
2022/10/16 11:56:03;;;;;;;4.67;1.40;;;;;;;23.54;42.19;101198.84;5130443;27;20126;-60
2022/10/16 11:58:56;;;;;;;5.05;1.40;;;;;;;23.00;43.56;101188.63;5145977;27;20293;-61
2022/10/16 12:01:54;;;;;;;4.70;1.48;;;;;;;23.02;44.27;101199.25;5115404;28;20042;-60